sensor_id;sensor_type;location;lat;lon;timestamp;P1;durP1;ratioP1;P2;durP2;ratioP2
70806;SDS011;58882;52.170;5.386;2023-03-19T00:04:17;2.92;;;1.50;;
70806;SDS011;58882;52.170;5.386;2023-03-19T00:09:44;4.40;;;1.85;;
70806;SDS011;58882;52.170;5.386;2023-03-19T00:12:26;2.70;;;1.45;;
70806;SDS011;58882;52.170;5.386;2023-03-19T00:15:13;5.32;;;1.88;;
70806;SDS011;58882;52.170;5.386;2023-03-19T00:17:54;3.78;;;1.65;;
70806;SDS011;58882;52.170;5.386;2023-03-19T00:23:28;3.88;;;2.05;;
70806;SDS011;58882;52.170;5.386;2023-03-19T00:26:15;4.90;;;1.70;;
70806;SDS011;58882;52.170;5.386;2023-03-19T00:31:42;5.60;;;2.00;;
70806;SDS011;58882;52.170;5.386;2023-03-19T00:34:22;5.68;;;2.10;;
70806;SDS011;58882;52.170;5.386;2023-03-19T00:37:09;5.25;;;2.00;;
70806;SDS011;58882;52.170;5.386;2023-03-19T00:39:50;4.90;;;2.00;;
70806;SDS011;58882;52.170;5.386;2023-03-19T00:42:37;4.50;;;2.05;;
70806;SDS011;58882;52.170;5.386;2023-03-19T00:45:24;3.97;;;1.95;;
70806;SDS011;58882;52.170;5.386;2023-03-19T00:48:04;4.95;;;2.00;;
70806;SDS011;58882;52.170;5.386;2023-03-19T00:50:51;4.07;;;1.80;;
70806;SDS011;58882;52.170;5.386;2023-03-19T00:56:18;4.43;;;1.85;;
70806;SDS011;58882;52.170;5.386;2023-03-19T01:01:52;3.25;;;2.00;;
70806;SDS011;58882;52.170;5.386;2023-03-19T01:04:25;3.65;;;1.83;;
70806;SDS011;58882;52.170;5.386;2023-03-19T01:09:54;7.25;;;2.53;;
70806;SDS011;58882;52.170;5.386;2023-03-19T01:12:48;5.72;;;2.22;;
70806;SDS011;58882;52.170;5.386;2023-03-19T01:15:22;3.75;;;1.83;;
70806;SDS011;58882;52.170;5.386;2023-03-19T01:20:56;5.90;;;2.38;;
70806;SDS011;58882;52.170;5.386;2023-03-19T01:23:52;5.55;;;2.40;;
70806;SDS011;58882;52.170;5.386;2023-03-19T01:26:26;4.65;;;2.10;;
70806;SDS011;58882;52.170;5.386;2023-03-19T01:29:26;6.05;;;2.60;;
70806;SDS011;58882;52.170;5.386;2023-03-19T01:32:24;4.80;;;2.28;;
70806;SDS011;58882;52.170;5.386;2023-03-19T01:35:40;4.97;;;2.13;;
70806;SDS011;58882;52.170;5.386;2023-03-19T01:38:24;5.28;;;2.33;;
70806;SDS011;58882;52.170;5.386;2023-03-19T01:41:15;6.47;;;2.40;;
70806;SDS011;58882;52.170;5.386;2023-03-19T01:44:20;6.65;;;2.60;;
70806;SDS011;58882;52.170;5.386;2023-03-19T01:47:30;5.38;;;2.08;;
70806;SDS011;58882;52.170;5.386;2023-03-19T01:50:59;6.28;;;2.30;;
70806;SDS011;58882;52.170;5.386;2023-03-19T01:54:07;5.22;;;2.45;;
70806;SDS011;58882;52.170;5.386;2023-03-19T01:56:59;6.20;;;2.60;;
70806;SDS011;58882;52.170;5.386;2023-03-19T02:00:00;7.70;;;3.28;;
70806;SDS011;58882;52.170;5.386;2023-03-19T02:02:42;5.95;;;2.50;;
70806;SDS011;58882;52.170;5.386;2023-03-19T02:05:53;4.90;;;2.65;;
70806;SDS011;58882;52.170;5.386;2023-03-19T02:08:28;7.93;;;2.50;;
70806;SDS011;58882;52.170;5.386;2023-03-19T02:11:24;6.93;;;3.22;;
70806;SDS011;58882;52.170;5.386;2023-03-19T02:14:04;6.38;;;2.88;;
70806;SDS011;58882;52.170;5.386;2023-03-19T02:16:51;7.68;;;3.00;;
70806;SDS011;58882;52.170;5.386;2023-03-19T02:19:42;7.05;;;3.22;;
70806;SDS011;58882;52.170;5.386;2023-03-19T02:22:42;8.13;;;3.30;;
70806;SDS011;58882;52.170;5.386;2023-03-19T02:28:42;8.05;;;2.67;;
70806;SDS011;58882;52.170;5.386;2023-03-19T02:31:40;7.35;;;2.60;;
70806;SDS011;58882;52.170;5.386;2023-03-19T02:39:58;7.65;;;2.78;;
70806;SDS011;58882;52.170;5.386;2023-03-19T02:42:57;7.05;;;3.00;;
70806;SDS011;58882;52.170;5.386;2023-03-19T02:45:30;6.60;;;3.05;;
70806;SDS011;58882;52.170;5.386;2023-03-19T02:50:58;7.60;;;2.90;;
70806;SDS011;58882;52.170;5.386;2023-03-19T02:56:25;7.00;;;2.97;;
70806;SDS011;58882;52.170;5.386;2023-03-19T03:01:59;6.45;;;3.33;;
70806;SDS011;58882;52.170;5.386;2023-03-19T03:04:47;7.35;;;3.60;;
70806;SDS011;58882;52.170;5.386;2023-03-19T03:10:14;9.55;;;3.78;;
70806;SDS011;58882;52.170;5.386;2023-03-19T03:12:55;8.73;;;4.40;;
70806;SDS011;58882;52.170;5.386;2023-03-19T03:15:42;10.20;;;4.40;;
70806;SDS011;58882;52.170;5.386;2023-03-19T03:21:16;10.10;;;4.60;;
70806;SDS011;58882;52.170;5.386;2023-03-19T03:23:52;7.57;;;4.18;;
70806;SDS011;58882;52.170;5.386;2023-03-19T03:29:19;8.30;;;4.32;;
70806;SDS011;58882;52.170;5.386;2023-03-19T03:32:13;9.30;;;4.80;;
70806;SDS011;58882;52.170;5.386;2023-03-19T03:34:47;11.45;;;4.65;;
70806;SDS011;58882;52.170;5.386;2023-03-19T03:37:41;10.07;;;4.63;;
70806;SDS011;58882;52.170;5.386;2023-03-19T03:40:21;10.88;;;5.00;;
70806;SDS011;58882;52.170;5.386;2023-03-19T03:43:08;9.73;;;5.07;;
70806;SDS011;58882;52.170;5.386;2023-03-19T03:45:43;10.18;;;4.60;;
70806;SDS011;58882;52.170;5.386;2023-03-19T03:48:36;9.40;;;5.13;;
70806;SDS011;58882;52.170;5.386;2023-03-19T03:51:09;9.02;;;4.78;;
70806;SDS011;58882;52.170;5.386;2023-03-19T03:54:03;9.63;;;4.93;;
70806;SDS011;58882;52.170;5.386;2023-03-19T03:56:36;10.25;;;4.88;;
70806;SDS011;58882;52.170;5.386;2023-03-19T04:02:03;9.05;;;4.63;;
70806;SDS011;58882;52.170;5.386;2023-03-19T04:04:57;10.30;;;5.50;;
70806;SDS011;58882;52.170;5.386;2023-03-19T04:07:38;10.25;;;5.82;;
70806;SDS011;58882;52.170;5.386;2023-03-19T04:10:26;9.50;;;5.30;;
70806;SDS011;58882;52.170;5.386;2023-03-19T04:12:59;8.60;;;5.07;;
70806;SDS011;58882;52.170;5.386;2023-03-19T04:15:53;10.02;;;5.47;;
70806;SDS011;58882;52.170;5.386;2023-03-19T04:18:28;9.27;;;5.20;;
70806;SDS011;58882;52.170;5.386;2023-03-19T04:21:21;10.20;;;4.90;;
70806;SDS011;58882;52.170;5.386;2023-03-19T04:26:48;9.30;;;4.80;;
70806;SDS011;58882;52.170;5.386;2023-03-19T04:29:21;9.50;;;5.40;;
70806;SDS011;58882;52.170;5.386;2023-03-19T04:32:15;13.93;;;5.47;;
70806;SDS011;58882;52.170;5.386;2023-03-19T04:34:56;11.43;;;6.05;;
70806;SDS011;58882;52.170;5.386;2023-03-19T04:37:43;11.60;;;5.90;;
70806;SDS011;58882;52.170;5.386;2023-03-19T04:40:27;10.48;;;5.88;;
70806;SDS011;58882;52.170;5.386;2023-03-19T04:43:21;10.07;;;5.60;;
70806;SDS011;58882;52.170;5.386;2023-03-19T04:46:03;11.65;;;6.20;;
70806;SDS011;58882;52.170;5.386;2023-03-19T04:48:57;11.95;;;6.68;;
70806;SDS011;58882;52.170;5.386;2023-03-19T04:51:32;10.85;;;6.20;;
70806;SDS011;58882;52.170;5.386;2023-03-19T04:54:25;12.07;;;5.90;;
70806;SDS011;58882;52.170;5.386;2023-03-19T04:57:07;11.10;;;6.15;;
70806;SDS011;58882;52.170;5.386;2023-03-19T04:59:56;12.45;;;6.35;;
70806;SDS011;58882;52.170;5.386;2023-03-19T05:02:39;11.52;;;6.45;;
70806;SDS011;58882;52.170;5.386;2023-03-19T05:05:28;10.45;;;5.80;;
70806;SDS011;58882;52.170;5.386;2023-03-19T05:08:05;12.98;;;7.05;;
70806;SDS011;58882;52.170;5.386;2023-03-19T05:13:54;12.25;;;6.00;;
70806;SDS011;58882;52.170;5.386;2023-03-19T05:19:50;11.27;;;6.40;;
70806;SDS011;58882;52.170;5.386;2023-03-19T05:22:50;10.20;;;6.35;;
70806;SDS011;58882;52.170;5.386;2023-03-19T05:25:37;10.50;;;6.68;;
70806;SDS011;58882;52.170;5.386;2023-03-19T05:28:51;14.00;;;6.18;;
70806;SDS011;58882;52.170;5.386;2023-03-19T05:32:02;12.55;;;6.60;;
70806;SDS011;58882;52.170;5.386;2023-03-19T05:34:43;12.05;;;6.20;;
70806;SDS011;58882;52.170;5.386;2023-03-19T05:37:30;11.57;;;6.60;;
70806;SDS011;58882;52.170;5.386;2023-03-19T05:40:10;10.15;;;6.20;;
70806;SDS011;58882;52.170;5.386;2023-03-19T05:42:58;12.93;;;6.35;;
70806;SDS011;58882;52.170;5.386;2023-03-19T05:45:39;12.48;;;6.60;;
70806;SDS011;58882;52.170;5.386;2023-03-19T05:48:35;11.48;;;6.05;;
70806;SDS011;58882;52.170;5.386;2023-03-19T05:51:09;13.52;;;6.63;;
70806;SDS011;58882;52.170;5.386;2023-03-19T05:57:06;11.30;;;6.13;;
70806;SDS011;58882;52.170;5.386;2023-03-19T06:00:09;13.80;;;6.18;;
70806;SDS011;58882;52.170;5.386;2023-03-19T06:02:45;12.27;;;6.65;;
70806;SDS011;58882;52.170;5.386;2023-03-19T06:05:59;11.02;;;6.32;;
70806;SDS011;58882;52.170;5.386;2023-03-19T06:08:40;12.43;;;7.25;;
70806;SDS011;58882;52.170;5.386;2023-03-19T06:11:44;10.93;;;6.43;;
70806;SDS011;58882;52.170;5.386;2023-03-19T06:14:36;13.93;;;7.20;;
70806;SDS011;58882;52.170;5.386;2023-03-19T06:17:42;15.30;;;6.82;;
70806;SDS011;58882;52.170;5.386;2023-03-19T06:20:17;14.95;;;7.15;;
70806;SDS011;58882;52.170;5.386;2023-03-19T06:23:10;14.73;;;7.50;;
70806;SDS011;58882;52.170;5.386;2023-03-19T06:25:51;14.48;;;7.72;;
70806;SDS011;58882;52.170;5.386;2023-03-19T06:28:46;13.85;;;7.97;;
70806;SDS011;58882;52.170;5.386;2023-03-19T06:31:33;15.40;;;8.20;;
70806;SDS011;58882;52.170;5.386;2023-03-19T06:34:32;15.43;;;8.57;;
70806;SDS011;58882;52.170;5.386;2023-03-19T06:37:19;17.08;;;8.48;;
70806;SDS011;58882;52.170;5.386;2023-03-19T06:39:59;16.45;;;8.63;;
70806;SDS011;58882;52.170;5.386;2023-03-19T06:42:46;14.57;;;8.23;;
70806;SDS011;58882;52.170;5.386;2023-03-19T06:45:20;13.75;;;8.20;;
70806;SDS011;58882;52.170;5.386;2023-03-19T06:48:14;17.50;;;8.15;;
70806;SDS011;58882;52.170;5.386;2023-03-19T06:50:47;14.05;;;7.88;;
70806;SDS011;58882;52.170;5.386;2023-03-19T06:56:14;13.40;;;8.00;;
70806;SDS011;58882;52.170;5.386;2023-03-19T07:01:44;17.75;;;8.15;;
70806;SDS011;58882;52.170;5.386;2023-03-19T07:04:38;14.35;;;8.13;;
70806;SDS011;58882;52.170;5.386;2023-03-19T07:07:11;15.60;;;8.82;;
70806;SDS011;58882;52.170;5.386;2023-03-19T07:12:45;17.50;;;8.98;;
70806;SDS011;58882;52.170;5.386;2023-03-19T07:15:32;17.05;;;9.35;;
70806;SDS011;58882;52.170;5.386;2023-03-19T07:18:05;18.45;;;9.73;;
70806;SDS011;58882;52.170;5.386;2023-03-19T07:20:59;23.05;;;11.45;;
70806;SDS011;58882;52.170;5.386;2023-03-19T07:23:32;21.98;;;10.65;;
70806;SDS011;58882;52.170;5.386;2023-03-19T07:28:59;22.70;;;11.55;;
70806;SDS011;58882;52.170;5.386;2023-03-19T07:34:26;23.45;;;12.02;;
70806;SDS011;58882;52.170;5.386;2023-03-19T07:40:00;26.48;;;13.20;;
70806;SDS011;58882;52.170;5.386;2023-03-19T07:42:47;26.70;;;13.50;;
70806;SDS011;58882;52.170;5.386;2023-03-19T07:45:30;27.40;;;14.57;;
70806;SDS011;58882;52.170;5.386;2023-03-19T07:48:24;26.73;;;13.38;;
70806;SDS011;58882;52.170;5.386;2023-03-19T07:50:58;31.10;;;15.40;;
70806;SDS011;58882;52.170;5.386;2023-03-19T07:56:33;30.13;;;14.55;;
70806;SDS011;58882;52.170;5.386;2023-03-19T07:59:21;28.02;;;14.15;;
70806;SDS011;58882;52.170;5.386;2023-03-19T08:01:55;24.77;;;12.70;;
70806;SDS011;58882;52.170;5.386;2023-03-19T08:07:22;22.65;;;12.25;;
70806;SDS011;58882;52.170;5.386;2023-03-19T08:12:56;21.67;;;11.57;;
70806;SDS011;58882;52.170;5.386;2023-03-19T08:15:43;23.45;;;11.95;;
70806;SDS011;58882;52.170;5.386;2023-03-19T08:18:38;21.40;;;11.45;;
70806;SDS011;58882;52.170;5.386;2023-03-19T08:21:11;24.75;;;11.77;;
70806;SDS011;58882;52.170;5.386;2023-03-19T08:26:45;23.52;;;12.13;;
70806;SDS011;58882;52.170;5.386;2023-03-19T08:29:32;19.77;;;10.48;;
70806;SDS011;58882;52.170;5.386;2023-03-19T08:35:06;19.38;;;10.38;;
70806;SDS011;58882;52.170;5.386;2023-03-19T08:40:33;21.55;;;11.02;;
70806;SDS011;58882;52.170;5.386;2023-03-19T08:46:01;22.15;;;11.48;;
70806;SDS011;58882;52.170;5.386;2023-03-19T08:48:41;22.45;;;10.40;;
70806;SDS011;58882;52.170;5.386;2023-03-19T08:51:28;19.52;;;10.80;;
70806;SDS011;58882;52.170;5.386;2023-03-19T08:54:09;19.83;;;10.98;;
70806;SDS011;58882;52.170;5.386;2023-03-19T08:56:56;19.75;;;10.23;;
70806;SDS011;58882;52.170;5.386;2023-03-19T08:59:37;18.67;;;10.50;;
70806;SDS011;58882;52.170;5.386;2023-03-19T09:02:24;17.85;;;10.63;;
70806;SDS011;58882;52.170;5.386;2023-03-19T09:07:51;18.40;;;10.20;;
70806;SDS011;58882;52.170;5.386;2023-03-19T09:13:18;18.83;;;10.40;;
70806;SDS011;58882;52.170;5.386;2023-03-19T09:18:52;16.73;;;9.77;;
70806;SDS011;58882;52.170;5.386;2023-03-19T09:21:25;17.80;;;9.18;;
70806;SDS011;58882;52.170;5.386;2023-03-19T09:26:52;17.63;;;9.93;;
70806;SDS011;58882;52.170;5.386;2023-03-19T09:32:40;16.98;;;9.50;;
70806;SDS011;58882;52.170;5.386;2023-03-19T09:35:20;18.13;;;9.77;;
70806;SDS011;58882;52.170;5.386;2023-03-19T09:38:09;19.67;;;10.65;;
70806;SDS011;58882;52.170;5.386;2023-03-19T09:46:52;18.20;;;10.13;;
70806;SDS011;58882;52.170;5.386;2023-03-19T09:49:44;17.17;;;9.82;;
70806;SDS011;58882;52.170;5.386;2023-03-19T09:52:45;17.27;;;9.45;;
70806;SDS011;58882;52.170;5.386;2023-03-19T09:58:24;16.50;;;9.32;;
70806;SDS011;58882;52.170;5.386;2023-03-19T10:01:26;16.48;;;9.57;;
70806;SDS011;58882;52.170;5.386;2023-03-19T10:10:12;17.58;;;9.90;;
70806;SDS011;58882;52.170;5.386;2023-03-19T10:15:56;19.00;;;10.13;;
70806;SDS011;58882;52.170;5.386;2023-03-19T10:18:54;16.38;;;9.63;;
70806;SDS011;58882;52.170;5.386;2023-03-19T10:24:35;15.75;;;8.75;;
70806;SDS011;58882;52.170;5.386;2023-03-19T10:27:12;17.00;;;10.18;;
70806;SDS011;58882;52.170;5.386;2023-03-19T10:30:12;16.92;;;9.43;;
70806;SDS011;58882;52.170;5.386;2023-03-19T10:33:22;17.85;;;10.05;;
70806;SDS011;58882;52.170;5.386;2023-03-19T10:36:03;17.52;;;9.43;;
70806;SDS011;58882;52.170;5.386;2023-03-19T10:39:02;17.08;;;9.15;;
70806;SDS011;58882;52.170;5.386;2023-03-19T10:44:54;17.48;;;9.05;;
70806;SDS011;58882;52.170;5.386;2023-03-19T10:47:36;16.60;;;9.80;;
70806;SDS011;58882;52.170;5.386;2023-03-19T10:50:33;18.38;;;10.25;;
70806;SDS011;58882;52.170;5.386;2023-03-19T10:59:19;20.23;;;9.38;;
70806;SDS011;58882;52.170;5.386;2023-03-19T11:02:21;18.05;;;9.88;;
70806;SDS011;58882;52.170;5.386;2023-03-19T11:11:01;20.42;;;9.85;;
70806;SDS011;58882;52.170;5.386;2023-03-19T11:13:45;18.05;;;8.98;;
70806;SDS011;58882;52.170;5.386;2023-03-19T11:16:44;16.10;;;8.80;;
70806;SDS011;58882;52.170;5.386;2023-03-19T11:19:31;16.90;;;8.23;;
70806;SDS011;58882;52.170;5.386;2023-03-19T11:22:32;23.80;;;8.27;;
70806;SDS011;58882;52.170;5.386;2023-03-19T11:28:14;18.00;;;8.10;;
70806;SDS011;58882;52.170;5.386;2023-03-19T11:31:18;15.30;;;8.20;;
70806;SDS011;58882;52.170;5.386;2023-03-19T11:34:18;15.27;;;7.78;;
70806;SDS011;58882;52.170;5.386;2023-03-19T11:40:04;15.77;;;7.30;;
70806;SDS011;58882;52.170;5.386;2023-03-19T11:43:12;15.10;;;7.43;;
70806;SDS011;58882;52.170;5.386;2023-03-19T11:49:26;14.00;;;7.47;;
70806;SDS011;58882;52.170;5.386;2023-03-19T11:52:15;15.57;;;8.05;;
70806;SDS011;58882;52.170;5.386;2023-03-19T11:58:34;14.50;;;7.10;;
70806;SDS011;58882;52.170;5.386;2023-03-19T12:08:42;16.60;;;7.75;;
70806;SDS011;58882;52.170;5.386;2023-03-19T12:14:08;14.32;;;7.38;;
70806;SDS011;58882;52.170;5.386;2023-03-19T12:19:49;15.75;;;7.53;;
70806;SDS011;58882;52.170;5.386;2023-03-19T12:25:59;15.40;;;7.90;;
70806;SDS011;58882;52.170;5.386;2023-03-19T12:35:00;14.07;;;6.45;;
70806;SDS011;58882;52.170;5.386;2023-03-19T12:43:27;14.27;;;7.07;;
70806;SDS011;58882;52.170;5.386;2023-03-19T12:46:15;15.32;;;7.00;;
70806;SDS011;58882;52.170;5.386;2023-03-19T12:49:24;14.77;;;6.90;;
70806;SDS011;58882;52.170;5.386;2023-03-19T12:52:23;14.05;;;6.47;;
70806;SDS011;58882;52.170;5.386;2023-03-19T12:58:20;14.63;;;6.72;;
70806;SDS011;58882;52.170;5.386;2023-03-19T13:01:18;16.25;;;7.22;;
70806;SDS011;58882;52.170;5.386;2023-03-19T13:06:54;14.45;;;6.25;;
70806;SDS011;58882;52.170;5.386;2023-03-19T13:09:49;16.92;;;7.00;;
70806;SDS011;58882;52.170;5.386;2023-03-19T13:12:45;17.25;;;7.30;;
70806;SDS011;58882;52.170;5.386;2023-03-19T13:15:32;18.35;;;8.30;;
70806;SDS011;58882;52.170;5.386;2023-03-19T13:21:33;19.35;;;6.97;;
70806;SDS011;58882;52.170;5.386;2023-03-19T13:24:26;16.20;;;6.70;;
70806;SDS011;58882;52.170;5.386;2023-03-19T13:27:10;17.60;;;7.03;;
70806;SDS011;58882;52.170;5.386;2023-03-19T13:33:01;17.00;;;7.00;;
70806;SDS011;58882;52.170;5.386;2023-03-19T13:36:00;17.50;;;7.30;;
70806;SDS011;58882;52.170;5.386;2023-03-19T13:38:38;15.90;;;6.85;;
70806;SDS011;58882;52.170;5.386;2023-03-19T13:53:20;19.08;;;7.13;;
70806;SDS011;58882;52.170;5.386;2023-03-19T13:56:11;19.10;;;7.50;;
70806;SDS011;58882;52.170;5.386;2023-03-19T14:05:15;16.27;;;6.47;;
70806;SDS011;58882;52.170;5.386;2023-03-19T14:07:57;18.98;;;8.27;;
70806;SDS011;58882;52.170;5.386;2023-03-19T14:10:48;16.73;;;6.80;;
70806;SDS011;58882;52.170;5.386;2023-03-19T14:13:39;16.00;;;6.95;;
70806;SDS011;58882;52.170;5.386;2023-03-19T14:16:32;20.38;;;7.80;;
70806;SDS011;58882;52.170;5.386;2023-03-19T14:19:17;17.38;;;7.07;;
70806;SDS011;58882;52.170;5.386;2023-03-19T14:22:15;18.20;;;7.80;;
70806;SDS011;58882;52.170;5.386;2023-03-19T14:27:50;18.70;;;7.38;;
70806;SDS011;58882;52.170;5.386;2023-03-19T14:30:36;16.77;;;7.15;;
70806;SDS011;58882;52.170;5.386;2023-03-19T14:33:27;17.60;;;7.40;;
70806;SDS011;58882;52.170;5.386;2023-03-19T14:36:16;18.48;;;7.18;;
70806;SDS011;58882;52.170;5.386;2023-03-19T14:39:07;18.70;;;7.97;;
70806;SDS011;58882;52.170;5.386;2023-03-19T14:42:07;17.42;;;7.28;;
70806;SDS011;58882;52.170;5.386;2023-03-19T14:54:35;13.88;;;6.35;;
70806;SDS011;58882;52.170;5.386;2023-03-19T14:57:36;16.13;;;6.88;;
70806;SDS011;58882;52.170;5.386;2023-03-19T15:00:14;15.43;;;7.13;;
70806;SDS011;58882;52.170;5.386;2023-03-19T15:03:18;15.35;;;6.50;;
70806;SDS011;58882;52.170;5.386;2023-03-19T15:06:02;15.35;;;6.95;;
70806;SDS011;58882;52.170;5.386;2023-03-19T15:08:50;13.57;;;6.78;;
70806;SDS011;58882;52.170;5.386;2023-03-19T15:15:08;17.25;;;7.68;;
70806;SDS011;58882;52.170;5.386;2023-03-19T15:18:06;16.17;;;7.97;;
70806;SDS011;58882;52.170;5.386;2023-03-19T15:21:02;17.90;;;7.68;;
70806;SDS011;58882;52.170;5.386;2023-03-19T15:23:36;15.48;;;7.40;;
70806;SDS011;58882;52.170;5.386;2023-03-19T15:26:34;17.52;;;8.38;;
70806;SDS011;58882;52.170;5.386;2023-03-19T15:29:30;15.48;;;7.32;;
70806;SDS011;58882;52.170;5.386;2023-03-19T15:32:35;16.63;;;8.02;;
70806;SDS011;58882;52.170;5.386;2023-03-19T15:35:35;15.57;;;7.68;;
70806;SDS011;58882;52.170;5.386;2023-03-19T15:38:22;17.58;;;7.75;;
70806;SDS011;58882;52.170;5.386;2023-03-19T15:40:59;14.05;;;7.40;;
70806;SDS011;58882;52.170;5.386;2023-03-19T15:43:55;16.75;;;7.85;;
70806;SDS011;58882;52.170;5.386;2023-03-19T15:49:42;18.58;;;7.75;;
70806;SDS011;58882;52.170;5.386;2023-03-19T15:52:38;14.88;;;7.43;;
70806;SDS011;58882;52.170;5.386;2023-03-19T15:55:27;16.00;;;7.70;;
70806;SDS011;58882;52.170;5.386;2023-03-19T15:58:03;15.48;;;7.30;;
70806;SDS011;58882;52.170;5.386;2023-03-19T16:01:05;14.52;;;6.93;;
70806;SDS011;58882;52.170;5.386;2023-03-19T16:03:54;16.60;;;8.07;;
70806;SDS011;58882;52.170;5.386;2023-03-19T16:06:45;14.75;;;7.63;;
70806;SDS011;58882;52.170;5.386;2023-03-19T16:12:34;15.52;;;8.07;;
70806;SDS011;58882;52.170;5.386;2023-03-19T16:18:42;17.83;;;7.97;;
70806;SDS011;58882;52.170;5.386;2023-03-19T16:21:44;17.48;;;8.63;;
70806;SDS011;58882;52.170;5.386;2023-03-19T16:24:43;16.98;;;8.15;;
70806;SDS011;58882;52.170;5.386;2023-03-19T16:27:39;20.85;;;8.00;;
70806;SDS011;58882;52.170;5.386;2023-03-19T16:30:26;17.02;;;8.93;;
70806;SDS011;58882;52.170;5.386;2023-03-19T16:33:13;17.23;;;9.25;;
70806;SDS011;58882;52.170;5.386;2023-03-19T16:35:53;17.48;;;8.80;;
70806;SDS011;58882;52.170;5.386;2023-03-19T16:38:48;17.08;;;9.18;;
70806;SDS011;58882;52.170;5.386;2023-03-19T16:45:01;16.90;;;8.52;;
70806;SDS011;58882;52.170;5.386;2023-03-19T16:47:58;20.08;;;9.38;;
70806;SDS011;58882;52.170;5.386;2023-03-19T16:50:46;16.42;;;9.05;;
70806;SDS011;58882;52.170;5.386;2023-03-19T16:53:28;20.02;;;9.98;;
70806;SDS011;58882;52.170;5.386;2023-03-19T16:56:16;22.88;;;10.45;;
70806;SDS011;58882;52.170;5.386;2023-03-19T16:59:19;22.38;;;10.18;;
70806;SDS011;58882;52.170;5.386;2023-03-19T17:02:13;20.58;;;10.73;;
70806;SDS011;58882;52.170;5.386;2023-03-19T17:04:54;23.45;;;10.98;;
70806;SDS011;58882;52.170;5.386;2023-03-19T17:07:41;24.17;;;10.10;;
70806;SDS011;58882;52.170;5.386;2023-03-19T17:10:22;22.70;;;11.13;;
70806;SDS011;58882;52.170;5.386;2023-03-19T17:13:22;21.63;;;10.93;;
70806;SDS011;58882;52.170;5.386;2023-03-19T17:16:06;24.65;;;11.43;;
70806;SDS011;58882;52.170;5.386;2023-03-19T17:18:54;23.00;;;11.52;;
70806;SDS011;58882;52.170;5.386;2023-03-19T17:21:38;25.85;;;11.57;;
70806;SDS011;58882;52.170;5.386;2023-03-19T17:24:26;23.25;;;11.63;;
70806;SDS011;58882;52.170;5.386;2023-03-19T17:27:11;25.33;;;11.98;;
70806;SDS011;58882;52.170;5.386;2023-03-19T17:29:58;24.67;;;11.98;;
70806;SDS011;58882;52.170;5.386;2023-03-19T17:35:41;27.17;;;11.60;;
70806;SDS011;58882;52.170;5.386;2023-03-19T17:38:21;23.55;;;12.02;;
70806;SDS011;58882;52.170;5.386;2023-03-19T17:41:21;22.30;;;11.15;;
70806;SDS011;58882;52.170;5.386;2023-03-19T17:46:49;23.48;;;11.13;;
70806;SDS011;58882;52.170;5.386;2023-03-19T17:49:27;23.70;;;11.30;;
70806;SDS011;58882;52.170;5.386;2023-03-19T17:52:22;24.45;;;11.60;;
70806;SDS011;58882;52.170;5.386;2023-03-19T17:54:55;21.27;;;10.65;;
70806;SDS011;58882;52.170;5.386;2023-03-19T18:00:29;22.02;;;10.98;;
70806;SDS011;58882;52.170;5.386;2023-03-19T18:03:17;25.45;;;13.13;;
70806;SDS011;58882;52.170;5.386;2023-03-19T18:05:52;23.33;;;11.13;;
70806;SDS011;58882;52.170;5.386;2023-03-19T18:08:50;23.42;;;11.20;;
70806;SDS011;58882;52.170;5.386;2023-03-19T18:11:23;26.70;;;11.52;;
70806;SDS011;58882;52.170;5.386;2023-03-19T18:14:17;21.30;;;12.02;;
70806;SDS011;58882;52.170;5.386;2023-03-19T18:19:44;24.10;;;11.82;;
70806;SDS011;58882;52.170;5.386;2023-03-19T18:22:26;21.23;;;11.13;;
70806;SDS011;58882;52.170;5.386;2023-03-19T18:25:18;22.98;;;10.85;;
70806;SDS011;58882;52.170;5.386;2023-03-19T18:28:01;23.15;;;11.45;;
70806;SDS011;58882;52.170;5.386;2023-03-19T18:30:49;23.30;;;11.05;;
70806;SDS011;58882;52.170;5.386;2023-03-19T18:36:20;20.90;;;10.63;;
70806;SDS011;58882;52.170;5.386;2023-03-19T18:39:05;22.92;;;11.68;;
70806;SDS011;58882;52.170;5.386;2023-03-19T18:44:37;22.58;;;10.65;;
70806;SDS011;58882;52.170;5.386;2023-03-19T18:47:24;23.23;;;10.95;;
70806;SDS011;58882;52.170;5.386;2023-03-19T18:53:11;24.50;;;11.15;;
70806;SDS011;58882;52.170;5.386;2023-03-19T18:55:51;24.15;;;11.68;;
70806;SDS011;58882;52.170;5.386;2023-03-19T18:58:47;19.33;;;9.98;;
70806;SDS011;58882;52.170;5.386;2023-03-19T19:01:20;23.90;;;11.15;;
70806;SDS011;58882;52.170;5.386;2023-03-19T19:06:54;18.75;;;9.57;;
70806;SDS011;58882;52.170;5.386;2023-03-19T19:09:41;21.13;;;9.73;;
70806;SDS011;58882;52.170;5.386;2023-03-19T19:15:19;23.45;;;9.93;;
70806;SDS011;58882;52.170;5.386;2023-03-19T19:18:20;20.92;;;10.10;;
70806;SDS011;58882;52.170;5.386;2023-03-19T19:21:15;23.25;;;10.30;;
70806;SDS011;58882;52.170;5.386;2023-03-19T19:23:55;23.02;;;10.63;;
70806;SDS011;58882;52.170;5.386;2023-03-19T19:26:42;20.25;;;9.43;;
70806;SDS011;58882;52.170;5.386;2023-03-19T19:32:27;22.30;;;10.20;;
70806;SDS011;58882;52.170;5.386;2023-03-19T19:35:13;20.40;;;9.73;;
70806;SDS011;58882;52.170;5.386;2023-03-19T19:38:02;25.08;;;11.63;;
70806;SDS011;58882;52.170;5.386;2023-03-19T19:40:35;22.27;;;10.10;;
70806;SDS011;58882;52.170;5.386;2023-03-19T19:43:30;24.38;;;10.18;;
70806;SDS011;58882;52.170;5.386;2023-03-19T19:46:03;26.42;;;10.68;;
70806;SDS011;58882;52.170;5.386;2023-03-19T19:51:37;22.48;;;9.80;;
70806;SDS011;58882;52.170;5.386;2023-03-19T19:54:24;22.48;;;10.18;;
70806;SDS011;58882;52.170;5.386;2023-03-19T19:56:57;25.42;;;10.25;;
70806;SDS011;58882;52.170;5.386;2023-03-19T20:02:37;22.67;;;9.77;;
70806;SDS011;58882;52.170;5.386;2023-03-19T20:05:26;26.10;;;11.55;;
70806;SDS011;58882;52.170;5.386;2023-03-19T20:08:07;22.70;;;10.20;;
70806;SDS011;58882;52.170;5.386;2023-03-19T20:10:54;26.90;;;10.65;;
70806;SDS011;58882;52.170;5.386;2023-03-19T20:13:35;22.42;;;9.65;;
70806;SDS011;58882;52.170;5.386;2023-03-19T20:16:23;22.58;;;9.35;;
70806;SDS011;58882;52.170;5.386;2023-03-19T20:19:04;20.08;;;9.23;;
70806;SDS011;58882;52.170;5.386;2023-03-19T20:21:51;20.45;;;9.23;;
70806;SDS011;58882;52.170;5.386;2023-03-19T20:24:32;23.70;;;9.35;;
70806;SDS011;58882;52.170;5.386;2023-03-19T20:27:30;21.65;;;8.90;;
70806;SDS011;58882;52.170;5.386;2023-03-19T20:30:18;21.13;;;9.52;;
70806;SDS011;58882;52.170;5.386;2023-03-19T20:33:09;21.13;;;9.43;;
70806;SDS011;58882;52.170;5.386;2023-03-19T20:35:50;21.45;;;9.73;;
70806;SDS011;58882;52.170;5.386;2023-03-19T20:38:37;23.42;;;9.70;;
70806;SDS011;58882;52.170;5.386;2023-03-19T20:41:23;21.73;;;10.55;;
70806;SDS011;58882;52.170;5.386;2023-03-19T20:44:19;25.08;;;9.80;;
70806;SDS011;58882;52.170;5.386;2023-03-19T20:47:01;19.75;;;8.60;;
70806;SDS011;58882;52.170;5.386;2023-03-19T20:49:48;21.55;;;9.23;;
70806;SDS011;58882;52.170;5.386;2023-03-19T20:52:21;21.10;;;9.32;;
70806;SDS011;58882;52.170;5.386;2023-03-19T20:57:56;23.08;;;9.45;;
70806;SDS011;58882;52.170;5.386;2023-03-19T21:00:52;19.20;;;8.10;;
70806;SDS011;58882;52.170;5.386;2023-03-19T21:03:27;20.23;;;9.07;;
70806;SDS011;58882;52.170;5.386;2023-03-19T21:06:23;20.52;;;8.93;;
70806;SDS011;58882;52.170;5.386;2023-03-19T21:09:23;20.40;;;9.95;;
70806;SDS011;58882;52.170;5.386;2023-03-19T21:12:29;20.08;;;9.35;;
70806;SDS011;58882;52.170;5.386;2023-03-19T21:15:13;20.52;;;8.68;;
70806;SDS011;58882;52.170;5.386;2023-03-19T21:18:01;17.75;;;7.43;;
70806;SDS011;58882;52.170;5.386;2023-03-19T21:20:34;16.00;;;7.55;;